sensor_id;sensor_type;location;lat;lon;timestamp;P1;durP1;ratioP1;P2;durP2;ratioP2
62584;SDS011;48643;51.670;5.808;2023-02-02T00:01:58;4.32;;;1.50;;
62584;SDS011;48643;51.670;5.808;2023-02-02T00:04:30;3.73;;;1.80;;
62584;SDS011;48643;51.670;5.808;2023-02-02T00:06:58;4.50;;;1.50;;
62584;SDS011;48643;51.670;5.808;2023-02-02T00:09:26;4.65;;;1.77;;
62584;SDS011;48643;51.670;5.808;2023-02-02T00:11:55;3.97;;;1.52;;
62584;SDS011;48643;51.670;5.808;2023-02-02T00:14:22;3.70;;;1.50;;
62584;SDS011;48643;51.670;5.808;2023-02-02T00:16:50;4.05;;;1.40;;
62584;SDS011;48643;51.670;5.808;2023-02-02T00:19:18;3.72;;;1.45;;
62584;SDS011;48643;51.670;5.808;2023-02-02T00:21:53;3.97;;;1.35;;
62584;SDS011;48643;51.670;5.808;2023-02-02T00:24:20;2.72;;;1.40;;
62584;SDS011;48643;51.670;5.808;2023-02-02T00:26:49;4.80;;;1.65;;
62584;SDS011;48643;51.670;5.808;2023-02-02T00:29:22;2.90;;;1.42;;
62584;SDS011;48643;51.670;5.808;2023-02-02T00:31:54;4.35;;;1.50;;
62584;SDS011;48643;51.670;5.808;2023-02-02T00:34:21;5.43;;;1.33;;
62584;SDS011;48643;51.670;5.808;2023-02-02T00:36:49;3.47;;;1.60;;
62584;SDS011;48643;51.670;5.808;2023-02-02T00:39:17;4.32;;;1.42;;
62584;SDS011;48643;51.670;5.808;2023-02-02T00:41:48;4.85;;;1.58;;
62584;SDS011;48643;51.670;5.808;2023-02-02T00:44:14;5.35;;;1.40;;
62584;SDS011;48643;51.670;5.808;2023-02-02T00:47:00;3.75;;;1.58;;
62584;SDS011;48643;51.670;5.808;2023-02-02T00:49:27;3.97;;;1.48;;
62584;SDS011;48643;51.670;5.808;2023-02-02T00:51:54;4.18;;;1.63;;
62584;SDS011;48643;51.670;5.808;2023-02-02T00:54:21;9.18;;;1.73;;
62584;SDS011;48643;51.670;5.808;2023-02-02T00:56:48;4.32;;;1.60;;
62584;SDS011;48643;51.670;5.808;2023-02-02T00:59:14;4.30;;;1.30;;
62584;SDS011;48643;51.670;5.808;2023-02-02T01:01:41;4.03;;;1.40;;
62584;SDS011;48643;51.670;5.808;2023-02-02T01:04:08;2.75;;;1.33;;
62584;SDS011;48643;51.670;5.808;2023-02-02T01:06:35;7.22;;;1.77;;
62584;SDS011;48643;51.670;5.808;2023-02-02T01:09:02;3.92;;;1.55;;
62584;SDS011;48643;51.670;5.808;2023-02-02T01:11:28;3.38;;;1.55;;
62584;SDS011;48643;51.670;5.808;2023-02-02T01:13:59;2.97;;;1.20;;
62584;SDS011;48643;51.670;5.808;2023-02-02T01:16:25;7.38;;;1.80;;
62584;SDS011;48643;51.670;5.808;2023-02-02T01:18:53;3.97;;;1.27;;
62584;SDS011;48643;51.670;5.808;2023-02-02T01:21:20;2.08;;;1.38;;
62584;SDS011;48643;51.670;5.808;2023-02-02T01:23:48;2.90;;;1.00;;
62584;SDS011;48643;51.670;5.808;2023-02-02T01:26:15;4.07;;;1.40;;
62584;SDS011;48643;51.670;5.808;2023-02-02T01:28:43;5.25;;;1.15;;
62584;SDS011;48643;51.670;5.808;2023-02-02T01:31:13;6.38;;;1.35;;
62584;SDS011;48643;51.670;5.808;2023-02-02T01:33:41;4.32;;;1.58;;
62584;SDS011;48643;51.670;5.808;2023-02-02T01:36:15;3.15;;;1.30;;
62584;SDS011;48643;51.670;5.808;2023-02-02T01:38:44;3.70;;;1.50;;
62584;SDS011;48643;51.670;5.808;2023-02-02T01:41:12;3.10;;;1.30;;
62584;SDS011;48643;51.670;5.808;2023-02-02T01:46:11;3.22;;;1.13;;
62584;SDS011;48643;51.670;5.808;2023-02-02T01:48:47;2.45;;;1.10;;
62584;SDS011;48643;51.670;5.808;2023-02-02T01:51:19;5.18;;;1.50;;
62584;SDS011;48643;51.670;5.808;2023-02-02T01:53:47;4.22;;;1.30;;
62584;SDS011;48643;51.670;5.808;2023-02-02T01:56:22;6.75;;;1.60;;
62584;SDS011;48643;51.670;5.808;2023-02-02T01:58:52;3.10;;;1.35;;
62584;SDS011;48643;51.670;5.808;2023-02-02T02:01:19;2.35;;;1.20;;
62584;SDS011;48643;51.670;5.808;2023-02-02T02:03:46;2.85;;;1.23;;
62584;SDS011;48643;51.670;5.808;2023-02-02T02:06:15;4.32;;;1.48;;
62584;SDS011;48643;51.670;5.808;2023-02-02T02:08:53;1.95;;;1.00;;
62584;SDS011;48643;51.670;5.808;2023-02-02T02:13:50;5.85;;;1.35;;
62584;SDS011;48643;51.670;5.808;2023-02-02T02:16:42;2.80;;;0.93;;
62584;SDS011;48643;51.670;5.808;2023-02-02T02:19:50;2.95;;;1.10;;
62584;SDS011;48643;51.670;5.808;2023-02-02T02:31:57;4.90;;;1.25;;
62584;SDS011;48643;51.670;5.808;2023-02-02T02:34:54;3.78;;;1.13;;
62584;SDS011;48643;51.670;5.808;2023-02-02T02:40:11;2.17;;;1.20;;
62584;SDS011;48643;51.670;5.808;2023-02-02T02:42:49;3.67;;;1.42;;
62584;SDS011;48643;51.670;5.808;2023-02-02T02:45:19;2.83;;;1.33;;
62584;SDS011;48643;51.670;5.808;2023-02-02T02:47:47;2.00;;;1.30;;
62584;SDS011;48643;51.670;5.808;2023-02-02T02:50:15;2.53;;;1.08;;
62584;SDS011;48643;51.670;5.808;2023-02-02T02:52:42;1.58;;;1.08;;
62584;SDS011;48643;51.670;5.808;2023-02-02T02:55:11;3.97;;;1.30;;
62584;SDS011;48643;51.670;5.808;2023-02-02T02:57:50;2.92;;;1.40;;
62584;SDS011;48643;51.670;5.808;2023-02-02T03:01:06;5.13;;;1.20;;
62584;SDS011;48643;51.670;5.808;2023-02-02T03:03:56;3.75;;;1.50;;
62584;SDS011;48643;51.670;5.808;2023-02-02T03:06:41;3.08;;;1.27;;
62584;SDS011;48643;51.670;5.808;2023-02-02T03:09:17;2.58;;;1.30;;
62584;SDS011;48643;51.670;5.808;2023-02-02T03:11:46;2.15;;;1.17;;
62584;SDS011;48643;51.670;5.808;2023-02-02T03:14:13;4.10;;;1.60;;
62584;SDS011;48643;51.670;5.808;2023-02-02T03:16:40;4.10;;;1.40;;
62584;SDS011;48643;51.670;5.808;2023-02-02T03:19:06;2.47;;;1.25;;
62584;SDS011;48643;51.670;5.808;2023-02-02T03:21:33;3.95;;;1.40;;
62584;SDS011;48643;51.670;5.808;2023-02-02T03:24:00;2.03;;;1.20;;
62584;SDS011;48643;51.670;5.808;2023-02-02T03:26:27;2.50;;;1.40;;
62584;SDS011;48643;51.670;5.808;2023-02-02T03:28:55;6.35;;;2.00;;
62584;SDS011;48643;51.670;5.808;2023-02-02T03:31:23;3.63;;;1.40;;
62584;SDS011;48643;51.670;5.808;2023-02-02T03:33:52;2.35;;;1.20;;
62584;SDS011;48643;51.670;5.808;2023-02-02T03:36:19;2.55;;;1.20;;
62584;SDS011;48643;51.670;5.808;2023-02-02T03:38:46;3.38;;;1.33;;
62584;SDS011;48643;51.670;5.808;2023-02-02T03:41:12;3.13;;;1.42;;
62584;SDS011;48643;51.670;5.808;2023-02-02T03:43:40;2.28;;;1.13;;
62584;SDS011;48643;51.670;5.808;2023-02-02T03:46:07;3.65;;;1.50;;
62584;SDS011;48643;51.670;5.808;2023-02-02T03:48:34;4.38;;;1.27;;
62584;SDS011;48643;51.670;5.808;2023-02-02T03:51:06;3.63;;;1.27;;
62584;SDS011;48643;51.670;5.808;2023-02-02T03:53:37;3.65;;;1.50;;
62584;SDS011;48643;51.670;5.808;2023-02-02T03:56:05;3.38;;;1.30;;
62584;SDS011;48643;51.670;5.808;2023-02-02T03:58:32;2.95;;;1.35;;
62584;SDS011;48643;51.670;5.808;2023-02-02T04:01:05;4.07;;;1.55;;
62584;SDS011;48643;51.670;5.808;2023-02-02T04:03:33;3.38;;;1.50;;
62584;SDS011;48643;51.670;5.808;2023-02-02T04:06:00;1.85;;;0.95;;
62584;SDS011;48643;51.670;5.808;2023-02-02T04:08:27;2.72;;;1.23;;
62584;SDS011;48643;51.670;5.808;2023-02-02T04:10:54;4.65;;;1.17;;
62584;SDS011;48643;51.670;5.808;2023-02-02T04:13:20;2.47;;;0.98;;
62584;SDS011;48643;51.670;5.808;2023-02-02T04:15:47;3.00;;;1.15;;
62584;SDS011;48643;51.670;5.808;2023-02-02T04:18:22;1.85;;;1.25;;
62584;SDS011;48643;51.670;5.808;2023-02-02T04:20:48;4.20;;;1.30;;
62584;SDS011;48643;51.670;5.808;2023-02-02T04:23:15;4.32;;;1.58;;
62584;SDS011;48643;51.670;5.808;2023-02-02T04:25:49;4.38;;;1.50;;
62584;SDS011;48643;51.670;5.808;2023-02-02T04:28:16;2.42;;;1.20;;
62584;SDS011;48643;51.670;5.808;2023-02-02T04:30:43;2.75;;;1.27;;
62584;SDS011;48643;51.670;5.808;2023-02-02T04:33:10;4.70;;;1.35;;
62584;SDS011;48643;51.670;5.808;2023-02-02T04:35:37;2.78;;;1.23;;
62584;SDS011;48643;51.670;5.808;2023-02-02T04:38:03;2.55;;;1.13;;
62584;SDS011;48643;51.670;5.808;2023-02-02T04:40:30;4.38;;;1.38;;
62584;SDS011;48643;51.670;5.808;2023-02-02T04:42:57;2.28;;;1.23;;
62584;SDS011;48643;51.670;5.808;2023-02-02T04:45:24;2.78;;;1.30;;
62584;SDS011;48643;51.670;5.808;2023-02-02T04:47:51;3.40;;;1.58;;
62584;SDS011;48643;51.670;5.808;2023-02-02T04:50:18;3.97;;;1.08;;
62584;SDS011;48643;51.670;5.808;2023-02-02T04:52:45;2.08;;;1.05;;
62584;SDS011;48643;51.670;5.808;2023-02-02T04:55:11;3.88;;;1.38;;
62584;SDS011;48643;51.670;5.808;2023-02-02T04:57:38;3.47;;;1.42;;
62584;SDS011;48643;51.670;5.808;2023-02-02T05:00:05;2.58;;;1.30;;
62584;SDS011;48643;51.670;5.808;2023-02-02T05:02:36;5.95;;;1.58;;
62584;SDS011;48643;51.670;5.808;2023-02-02T05:05:04;3.28;;;1.30;;
62584;SDS011;48643;51.670;5.808;2023-02-02T05:07:32;4.32;;;1.38;;
62584;SDS011;48643;51.670;5.808;2023-02-02T05:09:58;4.10;;;1.35;;
62584;SDS011;48643;51.670;5.808;2023-02-02T05:12:25;2.25;;;1.40;;
62584;SDS011;48643;51.670;5.808;2023-02-02T05:14:52;2.50;;;1.10;;
62584;SDS011;48643;51.670;5.808;2023-02-02T05:17:19;3.15;;;1.13;;
62584;SDS011;48643;51.670;5.808;2023-02-02T05:19:45;2.95;;;1.30;;
62584;SDS011;48643;51.670;5.808;2023-02-02T05:22:12;3.80;;;1.35;;
62584;SDS011;48643;51.670;5.808;2023-02-02T05:24:39;5.75;;;1.52;;
62584;SDS011;48643;51.670;5.808;2023-02-02T05:27:05;3.60;;;1.48;;
62584;SDS011;48643;51.670;5.808;2023-02-02T05:29:32;4.70;;;1.63;;
62584;SDS011;48643;51.670;5.808;2023-02-02T05:31:59;6.35;;;1.58;;
62584;SDS011;48643;51.670;5.808;2023-02-02T05:34:26;4.03;;;1.35;;
62584;SDS011;48643;51.670;5.808;2023-02-02T05:36:53;3.55;;;1.48;;
62584;SDS011;48643;51.670;5.808;2023-02-02T05:39:20;3.88;;;1.20;;
62584;SDS011;48643;51.670;5.808;2023-02-02T05:41:46;2.78;;;1.20;;
62584;SDS011;48643;51.670;5.808;2023-02-02T05:44:13;3.20;;;1.23;;
62584;SDS011;48643;51.670;5.808;2023-02-02T05:46:40;4.35;;;1.38;;
62584;SDS011;48643;51.670;5.808;2023-02-02T05:49:09;5.05;;;1.00;;
62584;SDS011;48643;51.670;5.808;2023-02-02T05:51:39;2.03;;;1.13;;
62584;SDS011;48643;51.670;5.808;2023-02-02T05:54:07;3.45;;;1.08;;
62584;SDS011;48643;51.670;5.808;2023-02-02T05:56:34;2.72;;;1.40;;
62584;SDS011;48643;51.670;5.808;2023-02-02T05:59:00;2.88;;;1.23;;
62584;SDS011;48643;51.670;5.808;2023-02-02T06:01:30;3.85;;;1.38;;
62584;SDS011;48643;51.670;5.808;2023-02-02T06:03:56;4.63;;;1.50;;
62584;SDS011;48643;51.670;5.808;2023-02-02T06:06:23;4.95;;;1.30;;
62584;SDS011;48643;51.670;5.808;2023-02-02T06:08:50;4.18;;;1.20;;
62584;SDS011;48643;51.670;5.808;2023-02-02T06:11:17;6.20;;;1.63;;
62584;SDS011;48643;51.670;5.808;2023-02-02T06:13:44;4.05;;;1.23;;
62584;SDS011;48643;51.670;5.808;2023-02-02T06:16:11;2.45;;;1.30;;
62584;SDS011;48643;51.670;5.808;2023-02-02T06:18:38;3.15;;;1.23;;
62584;SDS011;48643;51.670;5.808;2023-02-02T06:21:05;4.03;;;1.55;;
62584;SDS011;48643;51.670;5.808;2023-02-02T06:23:32;3.28;;;1.48;;
62584;SDS011;48643;51.670;5.808;2023-02-02T06:25:59;2.28;;;1.08;;
62584;SDS011;48643;51.670;5.808;2023-02-02T06:28:29;4.32;;;1.42;;
62584;SDS011;48643;51.670;5.808;2023-02-02T06:31:01;3.15;;;1.08;;
62584;SDS011;48643;51.670;5.808;2023-02-02T06:33:32;3.50;;;1.20;;
62584;SDS011;48643;51.670;5.808;2023-02-02T06:36:03;6.35;;;1.60;;
62584;SDS011;48643;51.670;5.808;2023-02-02T06:38:31;4.40;;;1.50;;
62584;SDS011;48643;51.670;5.808;2023-02-02T06:40:58;4.50;;;1.35;;
62584;SDS011;48643;51.670;5.808;2023-02-02T06:43:25;3.92;;;1.40;;
62584;SDS011;48643;51.670;5.808;2023-02-02T06:45:52;3.45;;;1.25;;
62584;SDS011;48643;51.670;5.808;2023-02-02T06:48:19;2.67;;;1.48;;
62584;SDS011;48643;51.670;5.808;2023-02-02T06:50:46;6.00;;;1.63;;
62584;SDS011;48643;51.670;5.808;2023-02-02T06:53:13;2.58;;;1.17;;
62584;SDS011;48643;51.670;5.808;2023-02-02T06:55:41;2.88;;;1.35;;
62584;SDS011;48643;51.670;5.808;2023-02-02T06:58:07;6.50;;;1.50;;
62584;SDS011;48643;51.670;5.808;2023-02-02T07:00:34;2.92;;;1.50;;
62584;SDS011;48643;51.670;5.808;2023-02-02T07:03:03;4.05;;;1.30;;
62584;SDS011;48643;51.670;5.808;2023-02-02T07:05:30;3.47;;;1.50;;
62584;SDS011;48643;51.670;5.808;2023-02-02T07:07:57;3.20;;;1.45;;
62584;SDS011;48643;51.670;5.808;2023-02-02T07:10:24;5.30;;;1.67;;
62584;SDS011;48643;51.670;5.808;2023-02-02T07:13:11;3.22;;;1.20;;
62584;SDS011;48643;51.670;5.808;2023-02-02T07:15:38;5.78;;;1.30;;
62584;SDS011;48643;51.670;5.808;2023-02-02T07:18:05;1.90;;;1.05;;
62584;SDS011;48643;51.670;5.808;2023-02-02T07:20:32;2.53;;;1.17;;
62584;SDS011;48643;51.670;5.808;2023-02-02T07:23:00;3.92;;;1.13;;
62584;SDS011;48643;51.670;5.808;2023-02-02T07:25:29;4.22;;;1.30;;
62584;SDS011;48643;51.670;5.808;2023-02-02T07:27:56;3.22;;;1.55;;
62584;SDS011;48643;51.670;5.808;2023-02-02T07:30:23;3.08;;;1.25;;
62584;SDS011;48643;51.670;5.808;2023-02-02T07:32:50;3.88;;;1.48;;
62584;SDS011;48643;51.670;5.808;2023-02-02T07:35:17;5.03;;;1.50;;
62584;SDS011;48643;51.670;5.808;2023-02-02T07:37:44;11.00;;;2.20;;
62584;SDS011;48643;51.670;5.808;2023-02-02T07:40:17;10.05;;;1.98;;
62584;SDS011;48643;51.670;5.808;2023-02-02T07:42:46;6.07;;;1.67;;
62584;SDS011;48643;51.670;5.808;2023-02-02T07:45:14;7.53;;;1.65;;
62584;SDS011;48643;51.670;5.808;2023-02-02T07:47:56;7.32;;;1.98;;
62584;SDS011;48643;51.670;5.808;2023-02-02T07:50:24;6.15;;;1.75;;
62584;SDS011;48643;51.670;5.808;2023-02-02T07:52:51;6.45;;;1.70;;
62584;SDS011;48643;51.670;5.808;2023-02-02T07:55:19;5.57;;;2.10;;
62584;SDS011;48643;51.670;5.808;2023-02-02T07:57:46;7.38;;;1.70;;
62584;SDS011;48643;51.670;5.808;2023-02-02T08:00:12;6.43;;;1.85;;
62584;SDS011;48643;51.670;5.808;2023-02-02T08:02:39;6.78;;;1.60;;
62584;SDS011;48643;51.670;5.808;2023-02-02T08:05:06;5.32;;;1.67;;
62584;SDS011;48643;51.670;5.808;2023-02-02T08:07:33;4.68;;;1.50;;
62584;SDS011;48643;51.670;5.808;2023-02-02T08:10:00;3.45;;;1.50;;
62584;SDS011;48643;51.670;5.808;2023-02-02T08:12:27;5.35;;;1.52;;
62584;SDS011;48643;51.670;5.808;2023-02-02T08:14:54;5.47;;;1.80;;
62584;SDS011;48643;51.670;5.808;2023-02-02T08:17:21;3.28;;;1.33;;
62584;SDS011;48643;51.670;5.808;2023-02-02T08:19:48;4.85;;;1.60;;
62584;SDS011;48643;51.670;5.808;2023-02-02T08:22:15;4.68;;;1.80;;
62584;SDS011;48643;51.670;5.808;2023-02-02T08:24:45;6.47;;;1.50;;
62584;SDS011;48643;51.670;5.808;2023-02-02T08:27:14;4.28;;;1.40;;
62584;SDS011;48643;51.670;5.808;2023-02-02T08:29:41;6.57;;;1.60;;
62584;SDS011;48643;51.670;5.808;2023-02-02T08:32:08;3.95;;;1.55;;
62584;SDS011;48643;51.670;5.808;2023-02-02T08:34:34;4.43;;;1.52;;
62584;SDS011;48643;51.670;5.808;2023-02-02T08:37:02;9.43;;;1.40;;
62584;SDS011;48643;51.670;5.808;2023-02-02T08:39:29;2.20;;;1.30;;
62584;SDS011;48643;51.670;5.808;2023-02-02T08:41:56;2.63;;;1.30;;
62584;SDS011;48643;51.670;5.808;2023-02-02T08:44:23;4.22;;;1.75;;
62584;SDS011;48643;51.670;5.808;2023-02-02T08:46:53;4.55;;;1.73;;
62584;SDS011;48643;51.670;5.808;2023-02-02T08:49:19;3.53;;;1.65;;
62584;SDS011;48643;51.670;5.808;2023-02-02T08:51:46;6.70;;;1.77;;
62584;SDS011;48643;51.670;5.808;2023-02-02T08:54:13;3.97;;;1.27;;
62584;SDS011;48643;51.670;5.808;2023-02-02T08:56:40;2.65;;;1.30;;
62584;SDS011;48643;51.670;5.808;2023-02-02T08:59:06;3.60;;;1.52;;
62584;SDS011;48643;51.670;5.808;2023-02-02T09:01:34;6.00;;;1.60;;
62584;SDS011;48643;51.670;5.808;2023-02-02T09:04:01;3.42;;;1.45;;
62584;SDS011;48643;51.670;5.808;2023-02-02T09:06:31;4.68;;;1.70;;
62584;SDS011;48643;51.670;5.808;2023-02-02T09:11:26;5.25;;;1.50;;
62584;SDS011;48643;51.670;5.808;2023-02-02T09:13:54;2.30;;;1.17;;
62584;SDS011;48643;51.670;5.808;2023-02-02T09:18:49;3.38;;;1.17;;
62584;SDS011;48643;51.670;5.808;2023-02-02T09:21:17;1.73;;;1.08;;
62584;SDS011;48643;51.670;5.808;2023-02-02T09:23:45;4.05;;;1.67;;
62584;SDS011;48643;51.670;5.808;2023-02-02T09:26:14;4.55;;;1.30;;
62584;SDS011;48643;51.670;5.808;2023-02-02T09:28:45;3.65;;;1.35;;
62584;SDS011;48643;51.670;5.808;2023-02-02T09:31:13;3.05;;;1.40;;
62584;SDS011;48643;51.670;5.808;2023-02-02T09:33:41;4.20;;;1.40;;
62584;SDS011;48643;51.670;5.808;2023-02-02T09:38:38;4.55;;;1.10;;
62584;SDS011;48643;51.670;5.808;2023-02-02T09:41:23;2.15;;;1.10;;
62584;SDS011;48643;51.670;5.808;2023-02-02T09:47:15;2.35;;;1.27;;
62584;SDS011;48643;51.670;5.808;2023-02-02T09:52:29;3.58;;;1.40;;
62584;SDS011;48643;51.670;5.808;2023-02-02T09:55:11;12.15;;;1.98;;
62584;SDS011;48643;51.670;5.808;2023-02-02T09:57:49;6.20;;;1.80;;
62584;SDS011;48643;51.670;5.808;2023-02-02T10:03:03;5.32;;;1.80;;
62584;SDS011;48643;51.670;5.808;2023-02-02T10:06:00;6.03;;;1.92;;
62584;SDS011;48643;51.670;5.808;2023-02-02T10:08:27;2.83;;;1.50;;
62584;SDS011;48643;51.670;5.808;2023-02-02T10:11:02;3.95;;;1.58;;
62584;SDS011;48643;51.670;5.808;2023-02-02T10:13:41;3.92;;;1.42;;
62584;SDS011;48643;51.670;5.808;2023-02-02T10:16:12;3.47;;;1.45;;
62584;SDS011;48643;51.670;5.808;2023-02-02T10:18:47;5.25;;;1.52;;
62584;SDS011;48643;51.670;5.808;2023-02-02T10:24:25;6.68;;;1.40;;
62584;SDS011;48643;51.670;5.808;2023-02-02T10:27:01;2.88;;;1.30;;
62584;SDS011;48643;51.670;5.808;2023-02-02T10:30:17;4.00;;;1.50;;
62584;SDS011;48643;51.670;5.808;2023-02-02T10:40:33;5.63;;;1.55;;
62584;SDS011;48643;51.670;5.808;2023-02-02T10:48:49;4.18;;;1.42;;
62584;SDS011;48643;51.670;5.808;2023-02-02T10:51:27;2.42;;;1.30;;
62584;SDS011;48643;51.670;5.808;2023-02-02T10:53:56;6.32;;;1.52;;
62584;SDS011;48643;51.670;5.808;2023-02-02T10:56:35;3.72;;;1.40;;
62584;SDS011;48643;51.670;5.808;2023-02-02T10:59:12;4.10;;;1.20;;
62584;SDS011;48643;51.670;5.808;2023-02-02T11:01:40;2.10;;;1.23;;
62584;SDS011;48643;51.670;5.808;2023-02-02T11:04:08;2.08;;;1.20;;
62584;SDS011;48643;51.670;5.808;2023-02-02T11:06:54;2.30;;;1.10;;
62584;SDS011;48643;51.670;5.808;2023-02-02T11:09:25;4.40;;;1.30;;
62584;SDS011;48643;51.670;5.808;2023-02-02T11:11:59;2.45;;;1.25;;
62584;SDS011;48643;51.670;5.808;2023-02-02T11:14:38;2.03;;;1.10;;
62584;SDS011;48643;51.670;5.808;2023-02-02T11:17:18;2.78;;;1.30;;
62584;SDS011;48643;51.670;5.808;2023-02-02T11:19:47;3.63;;;1.33;;
62584;SDS011;48643;51.670;5.808;2023-02-02T11:22:32;2.35;;;1.02;;
62584;SDS011;48643;51.670;5.808;2023-02-02T11:25:01;2.13;;;1.20;;
62584;SDS011;48643;51.670;5.808;2023-02-02T11:27:34;4.45;;;1.70;;
62584;SDS011;48643;51.670;5.808;2023-02-02T11:30:09;5.15;;;1.70;;
62584;SDS011;48643;51.670;5.808;2023-02-02T11:32:53;3.55;;;1.30;;
62584;SDS011;48643;51.670;5.808;2023-02-02T11:35:22;4.45;;;1.92;;
62584;SDS011;48643;51.670;5.808;2023-02-02T11:42:56;9.35;;;3.83;;
62584;SDS011;48643;51.670;5.808;2023-02-02T11:45:35;10.32;;;3.58;;
62584;SDS011;48643;51.670;5.808;2023-02-02T11:48:09;10.82;;;3.60;;
62584;SDS011;48643;51.670;5.808;2023-02-02T11:50:43;9.02;;;3.60;;
62584;SDS011;48643;51.670;5.808;2023-02-02T11:53:19;7.47;;;3.20;;
62584;SDS011;48643;51.670;5.808;2023-02-02T11:55:50;9.27;;;4.20;;
62584;SDS011;48643;51.670;5.808;2023-02-02T12:00:56;11.45;;;3.95;;
62584;SDS011;48643;51.670;5.808;2023-02-02T12:03:31;10.05;;;3.80;;
62584;SDS011;48643;51.670;5.808;2023-02-02T12:08:48;10.20;;;3.00;;
62584;SDS011;48643;51.670;5.808;2023-02-02T12:14:09;7.53;;;2.97;;
62584;SDS011;48643;51.670;5.808;2023-02-02T12:17:00;9.55;;;3.50;;
62584;SDS011;48643;51.670;5.808;2023-02-02T12:28:14;7.00;;;3.78;;
62584;SDS011;48643;51.670;5.808;2023-02-02T12:31:24;10.45;;;3.97;;
62584;SDS011;48643;51.670;5.808;2023-02-02T12:39:33;8.55;;;3.85;;
62584;SDS011;48643;51.670;5.808;2023-02-02T12:42:33;9.68;;;3.97;;
62584;SDS011;48643;51.670;5.808;2023-02-02T12:45:20;7.85;;;4.07;;
62584;SDS011;48643;51.670;5.808;2023-02-02T12:48:13;9.75;;;4.00;;
62584;SDS011;48643;51.670;5.808;2023-02-02T12:53:38;7.78;;;3.60;;
62584;SDS011;48643;51.670;5.808;2023-02-02T13:02:34;7.18;;;3.20;;
62584;SDS011;48643;51.670;5.808;2023-02-02T13:05:14;7.50;;;3.40;;
62584;SDS011;48643;51.670;5.808;2023-02-02T13:08:27;7.50;;;3.00;;
62584;SDS011;48643;51.670;5.808;2023-02-02T13:13:57;6.82;;;3.00;;
62584;SDS011;48643;51.670;5.808;2023-02-02T13:16:30;7.93;;;2.83;;
62584;SDS011;48643;51.670;5.808;2023-02-02T13:19:03;7.15;;;3.25;;
62584;SDS011;48643;51.670;5.808;2023-02-02T13:21:32;6.70;;;2.42;;
62584;SDS011;48643;51.670;5.808;2023-02-02T13:24:01;6.53;;;2.78;;
62584;SDS011;48643;51.670;5.808;2023-02-02T13:26:32;8.85;;;3.08;;
62584;SDS011;48643;51.670;5.808;2023-02-02T13:31:39;8.38;;;2.30;;
62584;SDS011;48643;51.670;5.808;2023-02-02T13:34:16;6.90;;;2.30;;
62584;SDS011;48643;51.670;5.808;2023-02-02T13:36:46;6.03;;;2.45;;
62584;SDS011;48643;51.670;5.808;2023-02-02T13:39:21;6.28;;;2.30;;
62584;SDS011;48643;51.670;5.808;2023-02-02T13:41:54;4.97;;;2.27;;
62584;SDS011;48643;51.670;5.808;2023-02-02T13:44:26;5.50;;;2.38;;
62584;SDS011;48643;51.670;5.808;2023-02-02T13:47:08;6.95;;;2.35;;
62584;SDS011;48643;51.670;5.808;2023-02-02T13:49:41;4.63;;;2.53;;
62584;SDS011;48643;51.670;5.808;2023-02-02T14:00:42;8.00;;;2.08;;
62584;SDS011;48643;51.670;5.808;2023-02-02T14:08:48;8.90;;;2.47;;
62584;SDS011;48643;51.670;5.808;2023-02-02T14:14:17;6.43;;;2.03;;
62584;SDS011;48643;51.670;5.808;2023-02-02T14:17:01;5.82;;;2.08;;
62584;SDS011;48643;51.670;5.808;2023-02-02T14:24:38;5.65;;;1.75;;
62584;SDS011;48643;51.670;5.808;2023-02-02T14:29:56;5.75;;;1.90;;
62584;SDS011;48643;51.670;5.808;2023-02-02T14:34:53;6.70;;;2.15;;
62584;SDS011;48643;51.670;5.808;2023-02-02T14:39:57;6.68;;;1.52;;
62584;SDS011;48643;51.670;5.808;2023-02-02T14:45:47;6.70;;;2.28;;
62584;SDS011;48643;51.670;5.808;2023-02-02T14:48:35;4.07;;;1.55;;
62584;SDS011;48643;51.670;5.808;2023-02-02T14:51:10;5.57;;;1.70;;
62584;SDS011;48643;51.670;5.808;2023-02-02T14:53:38;8.05;;;1.98;;
62584;SDS011;48643;51.670;5.808;2023-02-02T14:59:28;5.30;;;1.65;;
62584;SDS011;48643;51.670;5.808;2023-02-02T15:04:43;8.57;;;2.42;;
62584;SDS011;48643;51.670;5.808;2023-02-02T15:09:50;4.38;;;1.85;;
62584;SDS011;48643;51.670;5.808;2023-02-02T15:12:23;5.88;;;1.80;;
62584;SDS011;48643;51.670;5.808;2023-02-02T15:15:20;5.13;;;1.77;;
62584;SDS011;48643;51.670;5.808;2023-02-02T15:20:44;5.20;;;1.83;;
62584;SDS011;48643;51.670;5.808;2023-02-02T15:28:48;6.03;;;1.70;;
62584;SDS011;48643;51.670;5.808;2023-02-02T15:31:27;7.25;;;1.88;;
62584;SDS011;48643;51.670;5.808;2023-02-02T15:46:05;4.75;;;1.60;;
62584;SDS011;48643;51.670;5.808;2023-02-02T15:48:35;6.43;;;1.98;;
62584;SDS011;48643;51.670;5.808;2023-02-02T15:51:03;5.68;;;1.70;;
62584;SDS011;48643;51.670;5.808;2023-02-02T15:58:53;4.85;;;2.20;;
62584;SDS011;48643;51.670;5.808;2023-02-02T16:01:22;4.75;;;1.80;;
62584;SDS011;48643;51.670;5.808;2023-02-02T16:06:44;6.00;;;1.70;;
62584;SDS011;48643;51.670;5.808;2023-02-02T16:09:15;3.08;;;1.63;;
62584;SDS011;48643;51.670;5.808;2023-02-02T16:11:54;5.28;;;1.77;;
62584;SDS011;48643;51.670;5.808;2023-02-02T16:14:21;6.50;;;1.70;;
62584;SDS011;48643;51.670;5.808;2023-02-02T16:16:48;3.05;;;1.58;;
62584;SDS011;48643;51.670;5.808;2023-02-02T16:19:22;3.67;;;1.70;;
62584;SDS011;48643;51.670;5.808;2023-02-02T16:21:55;5.85;;;1.67;;
62584;SDS011;48643;51.670;5.808;2023-02-02T16:24:30;6.22;;;1.58;;
62584;SDS011;48643;51.670;5.808;2023-02-02T16:26:59;8.05;;;1.92;;
62584;SDS011;48643;51.670;5.808;2023-02-02T16:29:27;7.43;;;1.70;;
62584;SDS011;48643;51.670;5.808;2023-02-02T16:31:54;5.57;;;1.90;;
62584;SDS011;48643;51.670;5.808;2023-02-02T16:37:11;6.53;;;2.30;;
62584;SDS011;48643;51.670;5.808;2023-02-02T16:39:40;9.07;;;2.35;;
62584;SDS011;48643;51.670;5.808;2023-02-02T16:42:08;7.32;;;2.17;;
62584;SDS011;48643;51.670;5.808;2023-02-02T16:44:47;5.93;;;1.80;;
62584;SDS011;48643;51.670;5.808;2023-02-02T16:49:51;7.22;;;2.42;;
62584;SDS011;48643;51.670;5.808;2023-02-02T16:52:18;4.53;;;2.10;;
62584;SDS011;48643;51.670;5.808;2023-02-02T16:54:53;5.18;;;2.00;;
62584;SDS011;48643;51.670;5.808;2023-02-02T16:57:24;3.63;;;1.52;;
62584;SDS011;48643;51.670;5.808;2023-02-02T16:59:53;5.85;;;1.90;;
62584;SDS011;48643;51.670;5.808;2023-02-02T17:05:04;7.80;;;1.70;;
62584;SDS011;48643;51.670;5.808;2023-02-02T17:07:55;3.15;;;1.73;;
62584;SDS011;48643;51.670;5.808;2023-02-02T17:10:38;6.72;;;1.58;;
62584;SDS011;48643;51.670;5.808;2023-02-02T17:16:09;2.70;;;1.55;;
62584;SDS011;48643;51.670;5.808;2023-02-02T17:18:38;3.65;;;1.90;;
62584;SDS011;48643;51.670;5.808;2023-02-02T17:21:05;3.70;;;1.70;;
62584;SDS011;48643;51.670;5.808;2023-02-02T17:23:33;5.13;;;1.90;;
62584;SDS011;48643;51.670;5.808;2023-02-02T17:26:05;5.47;;;1.90;;
62584;SDS011;48643;51.670;5.808;2023-02-02T17:28:33;6.13;;;1.77;;
62584;SDS011;48643;51.670;5.808;2023-02-02T17:31:01;4.18;;;1.80;;
62584;SDS011;48643;51.670;5.808;2023-02-02T17:33:31;4.30;;;1.77;;
62584;SDS011;48643;51.670;5.808;2023-02-02T17:35:59;2.83;;;1.38;;
62584;SDS011;48643;51.670;5.808;2023-02-02T17:38:26;5.60;;;1.90;;
62584;SDS011;48643;51.670;5.808;2023-02-02T17:40:54;4.18;;;1.80;;
62584;SDS011;48643;51.670;5.808;2023-02-02T17:43:24;5.05;;;1.50;;
62584;SDS011;48643;51.670;5.808;2023-02-02T17:45:51;6.60;;;1.90;;
62584;SDS011;48643;51.670;5.808;2023-02-02T17:48:18;3.10;;;1.60;;
62584;SDS011;48643;51.670;5.808;2023-02-02T17:50:45;3.72;;;1.15;;
62584;SDS011;48643;51.670;5.808;2023-02-02T17:53:14;4.00;;;1.55;;
62584;SDS011;48643;51.670;5.808;2023-02-02T17:55:42;2.88;;;1.50;;
62584;SDS011;48643;51.670;5.808;2023-02-02T17:58:10;4.53;;;1.63;;
62584;SDS011;48643;51.670;5.808;2023-02-02T18:00:40;6.43;;;1.70;;
62584;SDS011;48643;51.670;5.808;2023-02-02T18:03:26;2.03;;;1.40;;
62584;SDS011;48643;51.670;5.808;2023-02-02T18:05:59;3.80;;;1.52;;